sensor_id;sensor_type;location;lat;lon;timestamp;P1;durP1;ratioP1;P2;durP2;ratioP2
23561;SDS011;11959;49.418;8.728;2023-08-20T00:00:18;10.60;;;8.95;;
23561;SDS011;11959;49.418;8.728;2023-08-20T00:02:45;10.45;;;9.13;;
23561;SDS011;11959;49.418;8.728;2023-08-20T00:05:12;10.43;;;8.68;;
23561;SDS011;11959;49.418;8.728;2023-08-20T00:07:38;10.25;;;8.30;;
23561;SDS011;11959;49.418;8.728;2023-08-20T00:10:04;12.82;;;9.43;;
23561;SDS011;11959;49.418;8.728;2023-08-20T00:12:31;9.68;;;8.30;;
23561;SDS011;11959;49.418;8.728;2023-08-20T00:14:57;11.30;;;8.60;;
23561;SDS011;11959;49.418;8.728;2023-08-20T00:17:30;10.00;;;8.45;;
23561;SDS011;11959;49.418;8.728;2023-08-20T00:20:00;10.63;;;8.85;;
23561;SDS011;11959;49.418;8.728;2023-08-20T00:22:29;12.85;;;8.70;;
23561;SDS011;11959;49.418;8.728;2023-08-20T00:24:56;9.90;;;7.45;;
23561;SDS011;11959;49.418;8.728;2023-08-20T00:27:22;11.32;;;7.68;;
23561;SDS011;11959;49.418;8.728;2023-08-20T00:29:48;10.77;;;7.30;;
23561;SDS011;11959;49.418;8.728;2023-08-20T00:32:14;10.00;;;7.57;;
23561;SDS011;11959;49.418;8.728;2023-08-20T00:34:40;9.45;;;7.22;;
23561;SDS011;11959;49.418;8.728;2023-08-20T00:37:05;9.70;;;7.35;;
23561;SDS011;11959;49.418;8.728;2023-08-20T00:39:31;10.80;;;7.32;;
23561;SDS011;11959;49.418;8.728;2023-08-20T00:41:57;12.48;;;7.80;;
23561;SDS011;11959;49.418;8.728;2023-08-20T00:44:23;9.13;;;7.35;;
23561;SDS011;11959;49.418;8.728;2023-08-20T00:46:49;7.80;;;6.85;;
23561;SDS011;11959;49.418;8.728;2023-08-20T00:49:16;8.30;;;7.20;;
23561;SDS011;11959;49.418;8.728;2023-08-20T00:51:43;9.40;;;7.45;;
23561;SDS011;11959;49.418;8.728;2023-08-20T00:54:10;9.80;;;7.55;;
23561;SDS011;11959;49.418;8.728;2023-08-20T00:56:36;9.00;;;7.28;;
23561;SDS011;11959;49.418;8.728;2023-08-20T00:59:03;13.55;;;8.18;;
23561;SDS011;11959;49.418;8.728;2023-08-20T01:01:30;11.10;;;7.57;;
23561;SDS011;11959;49.418;8.728;2023-08-20T01:03:56;8.30;;;7.40;;
23561;SDS011;11959;49.418;8.728;2023-08-20T01:08:49;9.82;;;7.60;;
23561;SDS011;11959;49.418;8.728;2023-08-20T01:11:30;9.98;;;8.05;;
23561;SDS011;11959;49.418;8.728;2023-08-20T01:14:00;10.23;;;8.02;;
23561;SDS011;11959;49.418;8.728;2023-08-20T01:16:26;10.65;;;7.63;;
23561;SDS011;11959;49.418;8.728;2023-08-20T01:18:52;10.93;;;7.63;;
23561;SDS011;11959;49.418;8.728;2023-08-20T01:24:17;10.63;;;7.68;;
23561;SDS011;11959;49.418;8.728;2023-08-20T01:29:22;9.75;;;7.80;;
23561;SDS011;11959;49.418;8.728;2023-08-20T01:31:48;8.35;;;7.55;;
23561;SDS011;11959;49.418;8.728;2023-08-20T01:34:14;9.95;;;8.20;;
23561;SDS011;11959;49.418;8.728;2023-08-20T01:36:40;9.43;;;7.57;;
23561;SDS011;11959;49.418;8.728;2023-08-20T01:39:05;11.07;;;8.25;;
23561;SDS011;11959;49.418;8.728;2023-08-20T01:41:31;8.88;;;7.70;;
23561;SDS011;11959;49.418;8.728;2023-08-20T01:43:57;10.15;;;7.88;;
23561;SDS011;11959;49.418;8.728;2023-08-20T01:46:22;8.93;;;8.00;;
23561;SDS011;11959;49.418;8.728;2023-08-20T01:48:48;9.32;;;8.20;;
23561;SDS011;11959;49.418;8.728;2023-08-20T01:51:14;11.20;;;8.88;;
23561;SDS011;11959;49.418;8.728;2023-08-20T01:53:40;13.07;;;8.77;;
23561;SDS011;11959;49.418;8.728;2023-08-20T01:56:10;9.05;;;8.15;;
23561;SDS011;11959;49.418;8.728;2023-08-20T01:58:37;12.55;;;8.10;;
23561;SDS011;11959;49.418;8.728;2023-08-20T02:01:02;9.10;;;7.97;;
23561;SDS011;11959;49.418;8.728;2023-08-20T02:03:28;11.50;;;8.55;;
23561;SDS011;11959;49.418;8.728;2023-08-20T02:05:54;10.52;;;8.05;;
23561;SDS011;11959;49.418;8.728;2023-08-20T02:08:20;10.75;;;7.95;;
23561;SDS011;11959;49.418;8.728;2023-08-20T02:10:46;12.60;;;8.27;;
23561;SDS011;11959;49.418;8.728;2023-08-20T02:13:11;12.18;;;8.85;;
23561;SDS011;11959;49.418;8.728;2023-08-20T02:15:37;10.88;;;9.63;;
23561;SDS011;11959;49.418;8.728;2023-08-20T02:18:03;10.85;;;9.68;;
23561;SDS011;11959;49.418;8.728;2023-08-20T02:20:28;10.82;;;9.73;;
23561;SDS011;11959;49.418;8.728;2023-08-20T02:22:54;17.02;;;10.43;;
23561;SDS011;11959;49.418;8.728;2023-08-20T02:25:20;15.40;;;10.75;;
23561;SDS011;11959;49.418;8.728;2023-08-20T02:27:45;12.13;;;10.77;;
23561;SDS011;11959;49.418;8.728;2023-08-20T02:30:11;12.10;;;9.48;;
23561;SDS011;11959;49.418;8.728;2023-08-20T02:32:38;14.75;;;10.77;;
23561;SDS011;11959;49.418;8.728;2023-08-20T02:35:04;11.95;;;10.45;;
23561;SDS011;11959;49.418;8.728;2023-08-20T02:37:31;11.25;;;10.10;;
23561;SDS011;11959;49.418;8.728;2023-08-20T02:39:57;11.48;;;10.38;;
23561;SDS011;11959;49.418;8.728;2023-08-20T02:42:22;14.63;;;11.25;;
23561;SDS011;11959;49.418;8.728;2023-08-20T02:44:48;13.93;;;10.75;;
23561;SDS011;11959;49.418;8.728;2023-08-20T02:47:14;11.95;;;10.77;;
23561;SDS011;11959;49.418;8.728;2023-08-20T02:49:40;15.45;;;10.70;;
23561;SDS011;11959;49.418;8.728;2023-08-20T02:52:06;12.73;;;10.43;;
23561;SDS011;11959;49.418;8.728;2023-08-20T02:54:31;11.02;;;9.93;;
23561;SDS011;11959;49.418;8.728;2023-08-20T02:56:57;10.95;;;9.90;;
23561;SDS011;11959;49.418;8.728;2023-08-20T02:59:23;14.40;;;10.32;;
23561;SDS011;11959;49.418;8.728;2023-08-20T03:01:49;11.77;;;10.20;;
23561;SDS011;11959;49.418;8.728;2023-08-20T03:04:15;11.48;;;10.30;;
23561;SDS011;11959;49.418;8.728;2023-08-20T03:06:40;12.43;;;10.35;;
23561;SDS011;11959;49.418;8.728;2023-08-20T03:09:06;13.32;;;9.88;;
23561;SDS011;11959;49.418;8.728;2023-08-20T03:11:32;12.80;;;9.90;;
23561;SDS011;11959;49.418;8.728;2023-08-20T03:13:57;12.55;;;10.23;;
23561;SDS011;11959;49.418;8.728;2023-08-20T03:16:23;12.70;;;9.70;;
23561;SDS011;11959;49.418;8.728;2023-08-20T03:18:49;15.32;;;10.15;;
23561;SDS011;11959;49.418;8.728;2023-08-20T03:21:14;12.23;;;9.77;;
23561;SDS011;11959;49.418;8.728;2023-08-20T03:23:40;10.13;;;9.07;;
23561;SDS011;11959;49.418;8.728;2023-08-20T03:26:06;12.18;;;9.32;;
23561;SDS011;11959;49.418;8.728;2023-08-20T03:28:31;10.43;;;9.32;;
23561;SDS011;11959;49.418;8.728;2023-08-20T03:31:00;11.00;;;9.73;;
23561;SDS011;11959;49.418;8.728;2023-08-20T03:33:26;13.02;;;9.70;;
23561;SDS011;11959;49.418;8.728;2023-08-20T03:35:52;10.65;;;9.55;;
23561;SDS011;11959;49.418;8.728;2023-08-20T03:38:17;12.25;;;9.32;;
23561;SDS011;11959;49.418;8.728;2023-08-20T03:40:43;11.25;;;10.07;;
23561;SDS011;11959;49.418;8.728;2023-08-20T03:43:10;11.15;;;9.38;;
23561;SDS011;11959;49.418;8.728;2023-08-20T03:45:36;11.13;;;9.23;;
23561;SDS011;11959;49.418;8.728;2023-08-20T03:48:01;11.05;;;9.80;;
23561;SDS011;11959;49.418;8.728;2023-08-20T03:50:27;12.40;;;9.23;;
23561;SDS011;11959;49.418;8.728;2023-08-20T03:52:53;11.55;;;9.30;;
23561;SDS011;11959;49.418;8.728;2023-08-20T03:55:18;10.43;;;8.85;;
23561;SDS011;11959;49.418;8.728;2023-08-20T03:57:44;11.88;;;9.20;;
23561;SDS011;11959;49.418;8.728;2023-08-20T04:00:10;10.48;;;9.32;;
23561;SDS011;11959;49.418;8.728;2023-08-20T04:02:37;12.02;;;9.50;;
23561;SDS011;11959;49.418;8.728;2023-08-20T04:05:03;10.88;;;9.77;;
23561;SDS011;11959;49.418;8.728;2023-08-20T04:07:29;12.73;;;9.90;;
23561;SDS011;11959;49.418;8.728;2023-08-20T04:09:55;10.70;;;9.60;;
23561;SDS011;11959;49.418;8.728;2023-08-20T04:12:21;11.52;;;10.35;;
23561;SDS011;11959;49.418;8.728;2023-08-20T04:14:46;13.73;;;10.70;;
23561;SDS011;11959;49.418;8.728;2023-08-20T04:17:12;12.23;;;10.60;;
23561;SDS011;11959;49.418;8.728;2023-08-20T04:19:37;12.88;;;9.65;;
23561;SDS011;11959;49.418;8.728;2023-08-20T04:22:03;14.38;;;10.02;;
23561;SDS011;11959;49.418;8.728;2023-08-20T04:24:29;11.10;;;9.95;;
23561;SDS011;11959;49.418;8.728;2023-08-20T04:26:54;14.00;;;9.75;;
23561;SDS011;11959;49.418;8.728;2023-08-20T04:29:20;11.07;;;9.32;;
23561;SDS011;11959;49.418;8.728;2023-08-20T04:31:46;12.48;;;10.48;;
23561;SDS011;11959;49.418;8.728;2023-08-20T04:34:11;13.32;;;10.85;;
23561;SDS011;11959;49.418;8.728;2023-08-20T04:36:37;13.13;;;10.98;;
23561;SDS011;11959;49.418;8.728;2023-08-20T04:39:03;13.25;;;10.63;;
23561;SDS011;11959;49.418;8.728;2023-08-20T04:41:29;13.45;;;10.30;;
23561;SDS011;11959;49.418;8.728;2023-08-20T04:43:55;15.48;;;11.27;;
23561;SDS011;11959;49.418;8.728;2023-08-20T04:46:21;14.85;;;10.65;;
23561;SDS011;11959;49.418;8.728;2023-08-20T04:48:47;11.82;;;10.63;;
23561;SDS011;11959;49.418;8.728;2023-08-20T04:51:13;14.05;;;10.98;;
23561;SDS011;11959;49.418;8.728;2023-08-20T04:53:38;11.63;;;10.43;;
23561;SDS011;11959;49.418;8.728;2023-08-20T04:56:04;14.90;;;11.15;;
23561;SDS011;11959;49.418;8.728;2023-08-20T04:58:30;11.98;;;10.45;;
23561;SDS011;11959;49.418;8.728;2023-08-20T05:00:55;13.27;;;10.80;;
23561;SDS011;11959;49.418;8.728;2023-08-20T05:03:21;12.20;;;10.50;;
23561;SDS011;11959;49.418;8.728;2023-08-20T05:05:50;12.55;;;11.38;;
23561;SDS011;11959;49.418;8.728;2023-08-20T05:08:16;11.70;;;10.50;;
23561;SDS011;11959;49.418;8.728;2023-08-20T05:10:42;15.00;;;11.23;;
23561;SDS011;11959;49.418;8.728;2023-08-20T05:13:08;12.35;;;10.15;;
23561;SDS011;11959;49.418;8.728;2023-08-20T05:15:34;13.38;;;10.65;;
23561;SDS011;11959;49.418;8.728;2023-08-20T05:18:00;11.63;;;10.13;;
23561;SDS011;11959;49.418;8.728;2023-08-20T05:20:25;12.32;;;10.73;;
23561;SDS011;11959;49.418;8.728;2023-08-20T05:22:51;12.77;;;10.57;;
23561;SDS011;11959;49.418;8.728;2023-08-20T05:25:17;14.00;;;11.15;;
23561;SDS011;11959;49.418;8.728;2023-08-20T05:27:42;12.80;;;11.20;;
23561;SDS011;11959;49.418;8.728;2023-08-20T05:30:08;12.02;;;10.63;;
23561;SDS011;11959;49.418;8.728;2023-08-20T05:32:34;14.20;;;10.75;;
23561;SDS011;11959;49.418;8.728;2023-08-20T05:35:00;11.93;;;10.43;;
23561;SDS011;11959;49.418;8.728;2023-08-20T05:37:25;12.93;;;10.05;;
23561;SDS011;11959;49.418;8.728;2023-08-20T05:39:51;11.88;;;10.48;;
23561;SDS011;11959;49.418;8.728;2023-08-20T05:42:16;12.02;;;10.52;;
23561;SDS011;11959;49.418;8.728;2023-08-20T05:44:42;11.43;;;10.23;;
23561;SDS011;11959;49.418;8.728;2023-08-20T05:47:08;14.30;;;10.73;;
23561;SDS011;11959;49.418;8.728;2023-08-20T05:49:34;15.05;;;10.43;;
23561;SDS011;11959;49.418;8.728;2023-08-20T05:51:59;11.80;;;9.90;;
23561;SDS011;11959;49.418;8.728;2023-08-20T05:54:25;12.55;;;10.48;;
23561;SDS011;11959;49.418;8.728;2023-08-20T05:56:50;11.25;;;10.15;;
23561;SDS011;11959;49.418;8.728;2023-08-20T05:59:16;12.43;;;10.20;;
23561;SDS011;11959;49.418;8.728;2023-08-20T06:01:42;13.48;;;10.73;;
23561;SDS011;11959;49.418;8.728;2023-08-20T06:04:08;12.20;;;10.90;;
23561;SDS011;11959;49.418;8.728;2023-08-20T06:06:34;11.18;;;9.93;;
23561;SDS011;11959;49.418;8.728;2023-08-20T06:09:00;11.40;;;9.75;;
23561;SDS011;11959;49.418;8.728;2023-08-20T06:11:26;12.23;;;10.30;;
23561;SDS011;11959;49.418;8.728;2023-08-20T06:13:51;11.88;;;10.13;;
23561;SDS011;11959;49.418;8.728;2023-08-20T06:16:17;12.30;;;10.32;;
23561;SDS011;11959;49.418;8.728;2023-08-20T06:18:43;11.25;;;10.15;;
23561;SDS011;11959;49.418;8.728;2023-08-20T06:21:08;12.60;;;10.45;;
23561;SDS011;11959;49.418;8.728;2023-08-20T06:23:34;14.02;;;10.93;;
23561;SDS011;11959;49.418;8.728;2023-08-20T06:26:01;11.93;;;10.02;;
23561;SDS011;11959;49.418;8.728;2023-08-20T06:28:26;12.70;;;10.45;;
23561;SDS011;11959;49.418;8.728;2023-08-20T06:30:52;11.27;;;10.10;;
23561;SDS011;11959;49.418;8.728;2023-08-20T06:33:17;13.80;;;10.23;;
23561;SDS011;11959;49.418;8.728;2023-08-20T06:35:43;12.73;;;10.38;;
23561;SDS011;11959;49.418;8.728;2023-08-20T06:38:09;10.98;;;9.65;;
23561;SDS011;11959;49.418;8.728;2023-08-20T06:40:34;10.93;;;9.82;;
23561;SDS011;11959;49.418;8.728;2023-08-20T06:43:00;10.82;;;9.73;;
23561;SDS011;11959;49.418;8.728;2023-08-20T06:45:25;12.30;;;9.95;;
23561;SDS011;11959;49.418;8.728;2023-08-20T06:47:51;10.98;;;9.35;;
23561;SDS011;11959;49.418;8.728;2023-08-20T06:50:17;11.23;;;9.63;;
23561;SDS011;11959;49.418;8.728;2023-08-20T06:52:42;11.95;;;10.45;;
23561;SDS011;11959;49.418;8.728;2023-08-20T06:55:08;11.88;;;9.73;;
23561;SDS011;11959;49.418;8.728;2023-08-20T06:57:34;11.52;;;10.32;;
23561;SDS011;11959;49.418;8.728;2023-08-20T07:00:00;12.95;;;10.35;;
23561;SDS011;11959;49.418;8.728;2023-08-20T07:02:25;11.23;;;10.13;;
23561;SDS011;11959;49.418;8.728;2023-08-20T07:04:51;11.73;;;9.00;;
23561;SDS011;11959;49.418;8.728;2023-08-20T07:07:16;11.23;;;9.77;;
23561;SDS011;11959;49.418;8.728;2023-08-20T07:09:42;12.30;;;9.48;;
23561;SDS011;11959;49.418;8.728;2023-08-20T07:12:08;12.00;;;9.73;;
23561;SDS011;11959;49.418;8.728;2023-08-20T07:14:33;11.45;;;9.43;;
23561;SDS011;11959;49.418;8.728;2023-08-20T07:16:59;10.32;;;9.32;;
23561;SDS011;11959;49.418;8.728;2023-08-20T07:19:27;10.85;;;8.98;;
23561;SDS011;11959;49.418;8.728;2023-08-20T07:21:53;10.20;;;9.15;;
23561;SDS011;11959;49.418;8.728;2023-08-20T07:24:19;10.40;;;9.30;;
23561;SDS011;11959;49.418;8.728;2023-08-20T07:26:50;9.80;;;8.68;;
23561;SDS011;11959;49.418;8.728;2023-08-20T07:29:24;10.45;;;9.45;;
23561;SDS011;11959;49.418;8.728;2023-08-20T07:31:50;9.25;;;8.35;;
23561;SDS011;11959;49.418;8.728;2023-08-20T07:34:16;9.45;;;8.45;;
23561;SDS011;11959;49.418;8.728;2023-08-20T07:36:41;10.88;;;9.20;;
23561;SDS011;11959;49.418;8.728;2023-08-20T07:39:07;10.32;;;9.38;;
23561;SDS011;11959;49.418;8.728;2023-08-20T07:41:34;10.48;;;9.38;;
23561;SDS011;11959;49.418;8.728;2023-08-20T07:44:00;10.40;;;9.30;;
23561;SDS011;11959;49.418;8.728;2023-08-20T07:46:26;12.15;;;9.48;;
23561;SDS011;11959;49.418;8.728;2023-08-20T07:48:52;9.75;;;8.75;;
23561;SDS011;11959;49.418;8.728;2023-08-20T07:51:19;13.05;;;9.52;;
23561;SDS011;11959;49.418;8.728;2023-08-20T07:53:44;11.57;;;9.68;;
23561;SDS011;11959;49.418;8.728;2023-08-20T07:56:10;12.02;;;9.75;;
23561;SDS011;11959;49.418;8.728;2023-08-20T07:58:36;10.15;;;9.05;;
23561;SDS011;11959;49.418;8.728;2023-08-20T08:01:01;13.65;;;9.25;;
23561;SDS011;11959;49.418;8.728;2023-08-20T08:03:27;10.48;;;9.23;;
23561;SDS011;11959;49.418;8.728;2023-08-20T08:08:27;10.75;;;9.05;;
23561;SDS011;11959;49.418;8.728;2023-08-20T08:10:52;9.23;;;8.30;;
23561;SDS011;11959;49.418;8.728;2023-08-20T08:13:22;10.00;;;8.77;;
23561;SDS011;11959;49.418;8.728;2023-08-20T08:15:48;10.27;;;9.27;;
23561;SDS011;11959;49.418;8.728;2023-08-20T08:18:15;9.93;;;8.93;;
23561;SDS011;11959;49.418;8.728;2023-08-20T08:20:41;12.07;;;9.63;;
23561;SDS011;11959;49.418;8.728;2023-08-20T08:23:07;10.40;;;9.02;;
23561;SDS011;11959;49.418;8.728;2023-08-20T08:25:33;9.90;;;8.80;;
23561;SDS011;11959;49.418;8.728;2023-08-20T08:27:58;10.85;;;9.75;;
23561;SDS011;11959;49.418;8.728;2023-08-20T08:30:24;12.23;;;10.23;;
23561;SDS011;11959;49.418;8.728;2023-08-20T08:32:50;10.45;;;9.00;;
23561;SDS011;11959;49.418;8.728;2023-08-20T08:35:16;10.93;;;9.77;;
23561;SDS011;11959;49.418;8.728;2023-08-20T08:37:42;10.95;;;9.40;;
23561;SDS011;11959;49.418;8.728;2023-08-20T08:40:08;9.85;;;8.85;;
23561;SDS011;11959;49.418;8.728;2023-08-20T08:42:34;11.75;;;8.98;;
23561;SDS011;11959;49.418;8.728;2023-08-20T08:45:00;10.88;;;8.95;;
23561;SDS011;11959;49.418;8.728;2023-08-20T08:47:26;11.00;;;9.88;;
23561;SDS011;11959;49.418;8.728;2023-08-20T08:49:53;11.38;;;9.10;;
23561;SDS011;11959;49.418;8.728;2023-08-20T08:52:22;10.18;;;8.90;;
23561;SDS011;11959;49.418;8.728;2023-08-20T08:54:48;10.50;;;9.15;;
23561;SDS011;11959;49.418;8.728;2023-08-20T08:57:14;9.25;;;8.25;;
23561;SDS011;11959;49.418;8.728;2023-08-20T08:59:41;10.50;;;8.95;;
23561;SDS011;11959;49.418;8.728;2023-08-20T09:02:08;10.70;;;9.27;;
23561;SDS011;11959;49.418;8.728;2023-08-20T09:04:38;11.23;;;9.07;;
23561;SDS011;11959;49.418;8.728;2023-08-20T09:07:05;9.63;;;8.65;;
23561;SDS011;11959;49.418;8.728;2023-08-20T09:09:35;11.60;;;9.07;;
23561;SDS011;11959;49.418;8.728;2023-08-20T09:12:02;9.63;;;8.15;;
23561;SDS011;11959;49.418;8.728;2023-08-20T09:14:43;9.73;;;8.35;;
23561;SDS011;11959;49.418;8.728;2023-08-20T09:17:11;10.90;;;8.23;;
23561;SDS011;11959;49.418;8.728;2023-08-20T09:19:37;15.13;;;9.38;;
23561;SDS011;11959;49.418;8.728;2023-08-20T09:22:03;10.07;;;8.80;;
23561;SDS011;11959;49.418;8.728;2023-08-20T09:24:33;10.73;;;8.88;;
23561;SDS011;11959;49.418;8.728;2023-08-20T09:27:04;9.15;;;8.30;;
23561;SDS011;11959;49.418;8.728;2023-08-20T09:29:33;9.50;;;8.40;;
23561;SDS011;11959;49.418;8.728;2023-08-20T09:32:09;11.02;;;9.25;;
23561;SDS011;11959;49.418;8.728;2023-08-20T09:34:49;9.95;;;8.65;;
23561;SDS011;11959;49.418;8.728;2023-08-20T09:37:17;9.38;;;8.32;;
23561;SDS011;11959;49.418;8.728;2023-08-20T09:39:43;9.93;;;8.43;;
23561;SDS011;11959;49.418;8.728;2023-08-20T09:42:10;10.75;;;8.25;;
23561;SDS011;11959;49.418;8.728;2023-08-20T09:44:37;10.48;;;8.15;;
23561;SDS011;11959;49.418;8.728;2023-08-20T09:47:07;11.32;;;8.73;;
23561;SDS011;11959;49.418;8.728;2023-08-20T09:49:37;9.35;;;8.30;;
23561;SDS011;11959;49.418;8.728;2023-08-20T09:52:07;10.70;;;8.20;;
23561;SDS011;11959;49.418;8.728;2023-08-20T09:57:00;9.82;;;8.32;;
23561;SDS011;11959;49.418;8.728;2023-08-20T09:59:31;9.35;;;7.53;;
23561;SDS011;11959;49.418;8.728;2023-08-20T10:01:57;12.18;;;8.20;;
23561;SDS011;11959;49.418;8.728;2023-08-20T10:04:24;8.80;;;7.93;;
23561;SDS011;11959;49.418;8.728;2023-08-20T10:06:51;9.65;;;7.38;;
23561;SDS011;11959;49.418;8.728;2023-08-20T10:09:19;8.65;;;7.85;;
23561;SDS011;11959;49.418;8.728;2023-08-20T10:11:46;9.30;;;7.47;;
23561;SDS011;11959;49.418;8.728;2023-08-20T10:14:12;9.45;;;8.50;;
23561;SDS011;11959;49.418;8.728;2023-08-20T10:16:38;10.30;;;7.57;;
23561;SDS011;11959;49.418;8.728;2023-08-20T10:19:07;7.80;;;6.70;;
23561;SDS011;11959;49.418;8.728;2023-08-20T10:21:33;7.65;;;6.85;;
23561;SDS011;11959;49.418;8.728;2023-08-20T10:24:03;8.95;;;7.28;;
23561;SDS011;11959;49.418;8.728;2023-08-20T10:26:30;8.75;;;6.85;;
23561;SDS011;11959;49.418;8.728;2023-08-20T10:34:35;7.88;;;7.07;;
23561;SDS011;11959;49.418;8.728;2023-08-20T10:37:14;6.97;;;6.38;;
23561;SDS011;11959;49.418;8.728;2023-08-20T10:39:40;7.38;;;6.68;;
23561;SDS011;11959;49.418;8.728;2023-08-20T10:45:05;7.40;;;6.70;;
23561;SDS011;11959;49.418;8.728;2023-08-20T10:47:47;8.20;;;6.75;;
23561;SDS011;11959;49.418;8.728;2023-08-20T10:50:17;7.57;;;6.72;;
23561;SDS011;11959;49.418;8.728;2023-08-20T10:52:47;7.22;;;6.15;;
23561;SDS011;11959;49.418;8.728;2023-08-20T10:55:14;9.80;;;6.70;;
23561;SDS011;11959;49.418;8.728;2023-08-20T10:57:40;8.45;;;6.10;;
23561;SDS011;11959;49.418;8.728;2023-08-20T11:00:06;6.93;;;5.70;;
23561;SDS011;11959;49.418;8.728;2023-08-20T11:02:36;6.90;;;6.20;;
23561;SDS011;11959;49.418;8.728;2023-08-20T11:05:03;6.63;;;5.93;;
23561;SDS011;11959;49.418;8.728;2023-08-20T11:07:40;7.85;;;6.30;;
23561;SDS011;11959;49.418;8.728;2023-08-20T11:10:06;7.25;;;5.70;;
23561;SDS011;11959;49.418;8.728;2023-08-20T11:12:33;8.27;;;6.45;;
23561;SDS011;11959;49.418;8.728;2023-08-20T11:15:01;8.25;;;6.18;;
23561;SDS011;11959;49.418;8.728;2023-08-20T11:17:28;6.88;;;5.75;;
23561;SDS011;11959;49.418;8.728;2023-08-20T11:19:53;7.60;;;6.40;;
23561;SDS011;11959;49.418;8.728;2023-08-20T11:22:19;8.75;;;6.15;;
23561;SDS011;11959;49.418;8.728;2023-08-20T11:24:48;7.55;;;5.78;;
23561;SDS011;11959;49.418;8.728;2023-08-20T11:27:14;7.18;;;6.25;;
23561;SDS011;11959;49.418;8.728;2023-08-20T11:29:42;9.45;;;6.03;;
23561;SDS011;11959;49.418;8.728;2023-08-20T11:32:09;7.43;;;6.25;;
23561;SDS011;11959;49.418;8.728;2023-08-20T11:34:35;9.95;;;6.28;;
23561;SDS011;11959;49.418;8.728;2023-08-20T11:37:03;11.20;;;6.22;;
23561;SDS011;11959;49.418;8.728;2023-08-20T11:39:30;8.65;;;5.78;;
23561;SDS011;11959;49.418;8.728;2023-08-20T11:41:55;7.38;;;6.45;;
23561;SDS011;11959;49.418;8.728;2023-08-20T11:44:22;7.30;;;6.30;;
23561;SDS011;11959;49.418;8.728;2023-08-20T11:46:48;7.82;;;6.38;;
23561;SDS011;11959;49.418;8.728;2023-08-20T11:49:15;8.20;;;6.20;;
23561;SDS011;11959;49.418;8.728;2023-08-20T11:51:47;7.57;;;5.53;;
23561;SDS011;11959;49.418;8.728;2023-08-20T11:54:15;8.30;;;6.30;;
23561;SDS011;11959;49.418;8.728;2023-08-20T11:56:45;6.30;;;5.55;;
23561;SDS011;11959;49.418;8.728;2023-08-20T11:59:15;6.70;;;6.00;;
23561;SDS011;11959;49.418;8.728;2023-08-20T12:01:42;8.57;;;6.22;;
23561;SDS011;11959;49.418;8.728;2023-08-20T12:04:08;8.10;;;5.90;;
23561;SDS011;11959;49.418;8.728;2023-08-20T12:06:36;6.55;;;5.80;;
23561;SDS011;11959;49.418;8.728;2023-08-20T12:09:23;6.60;;;6.00;;
23561;SDS011;11959;49.418;8.728;2023-08-20T12:11:52;7.07;;;6.32;;
23561;SDS011;11959;49.418;8.728;2023-08-20T12:14:20;7.15;;;6.05;;
23561;SDS011;11959;49.418;8.728;2023-08-20T12:16:46;6.55;;;5.70;;
23561;SDS011;11959;49.418;8.728;2023-08-20T12:19:12;6.97;;;5.97;;
23561;SDS011;11959;49.418;8.728;2023-08-20T12:21:39;7.13;;;6.00;;
23561;SDS011;11959;49.418;8.728;2023-08-20T12:24:06;9.05;;;6.45;;
23561;SDS011;11959;49.418;8.728;2023-08-20T12:26:32;6.63;;;5.95;;
23561;SDS011;11959;49.418;8.728;2023-08-20T12:28:57;7.30;;;6.13;;
23561;SDS011;11959;49.418;8.728;2023-08-20T12:31:23;6.65;;;5.45;;
23561;SDS011;11959;49.418;8.728;2023-08-20T12:33:49;6.68;;;5.65;;
23561;SDS011;11959;49.418;8.728;2023-08-20T12:36:14;7.18;;;6.20;;
23561;SDS011;11959;49.418;8.728;2023-08-20T12:38:40;7.25;;;5.80;;
23561;SDS011;11959;49.418;8.728;2023-08-20T12:41:06;6.53;;;5.95;;
23561;SDS011;11959;49.418;8.728;2023-08-20T12:43:32;8.15;;;6.18;;
23561;SDS011;11959;49.418;8.728;2023-08-20T12:45:58;8.70;;;5.80;;
23561;SDS011;11959;49.418;8.728;2023-08-20T12:48:23;6.15;;;5.47;;
23561;SDS011;11959;49.418;8.728;2023-08-20T12:50:49;6.70;;;5.72;;
23561;SDS011;11959;49.418;8.728;2023-08-20T12:53:15;6.47;;;5.78;;
23561;SDS011;11959;49.418;8.728;2023-08-20T12:55:41;6.75;;;5.60;;
23561;SDS011;11959;49.418;8.728;2023-08-20T12:58:07;5.93;;;5.28;;
23561;SDS011;11959;49.418;8.728;2023-08-20T13:00:33;6.25;;;5.25;;
23561;SDS011;11959;49.418;8.728;2023-08-20T13:02:58;9.35;;;5.85;;
23561;SDS011;11959;49.418;8.728;2023-08-20T13:05:25;6.63;;;5.75;;
23561;SDS011;11959;49.418;8.728;2023-08-20T13:07:51;6.72;;;5.40;;
23561;SDS011;11959;49.418;8.728;2023-08-20T13:10:18;8.23;;;5.68;;
23561;SDS011;11959;49.418;8.728;2023-08-20T13:12:48;6.00;;;5.40;;
23561;SDS011;11959;49.418;8.728;2023-08-20T13:15:16;6.20;;;5.45;;
23561;SDS011;11959;49.418;8.728;2023-08-20T13:17:43;6.45;;;5.85;;
23561;SDS011;11959;49.418;8.728;2023-08-20T13:20:10;6.60;;;5.00;;
23561;SDS011;11959;49.418;8.728;2023-08-20T13:22:36;6.43;;;5.05;;
23561;SDS011;11959;49.418;8.728;2023-08-20T13:25:02;7.38;;;5.30;;
23561;SDS011;11959;49.418;8.728;2023-08-20T13:27:29;5.93;;;5.20;;
23561;SDS011;11959;49.418;8.728;2023-08-20T13:29:55;6.60;;;5.35;;
23561;SDS011;11959;49.418;8.728;2023-08-20T13:32:21;7.03;;;5.47;;
23561;SDS011;11959;49.418;8.728;2023-08-20T13:34:47;7.03;;;5.30;;
23561;SDS011;11959;49.418;8.728;2023-08-20T13:37:14;8.02;;;5.25;;
23561;SDS011;11959;49.418;8.728;2023-08-20T13:39:39;5.65;;;5.05;;
23561;SDS011;11959;49.418;8.728;2023-08-20T13:42:05;7.28;;;5.25;;
23561;SDS011;11959;49.418;8.728;2023-08-20T13:44:31;6.43;;;5.22;;
23561;SDS011;11959;49.418;8.728;2023-08-20T13:46:56;7.90;;;5.30;;
23561;SDS011;11959;49.418;8.728;2023-08-20T13:49:22;6.18;;;5.07;;
23561;SDS011;11959;49.418;8.728;2023-08-20T13:51:47;6.18;;;5.38;;
23561;SDS011;11959;49.418;8.728;2023-08-20T13:54:13;6.20;;;4.97;;
23561;SDS011;11959;49.418;8.728;2023-08-20T13:56:39;7.13;;;5.18;;
23561;SDS011;11959;49.418;8.728;2023-08-20T13:59:04;6.07;;;5.20;;
23561;SDS011;11959;49.418;8.728;2023-08-20T14:01:30;8.10;;;5.40;;
23561;SDS011;11959;49.418;8.728;2023-08-20T14:03:55;7.57;;;5.20;;
23561;SDS011;11959;49.418;8.728;2023-08-20T14:06:21;7.20;;;5.15;;
23561;SDS011;11959;49.418;8.728;2023-08-20T14:08:47;5.80;;;5.10;;
23561;SDS011;11959;49.418;8.728;2023-08-20T14:11:13;8.65;;;5.47;;
23561;SDS011;11959;49.418;8.728;2023-08-20T14:13:39;5.45;;;4.90;;
23561;SDS011;11959;49.418;8.728;2023-08-20T14:16:07;5.93;;;4.97;;
23561;SDS011;11959;49.418;8.728;2023-08-20T14:18:33;5.57;;;4.97;;
23561;SDS011;11959;49.418;8.728;2023-08-20T14:20:58;5.70;;;4.75;;
23561;SDS011;11959;49.418;8.728;2023-08-20T14:23:24;6.97;;;4.93;;
23561;SDS011;11959;49.418;8.728;2023-08-20T14:25:50;8.20;;;4.93;;
23561;SDS011;11959;49.418;8.728;2023-08-20T14:28:15;5.85;;;5.00;;
23561;SDS011;11959;49.418;8.728;2023-08-20T14:30:41;6.13;;;4.85;;
23561;SDS011;11959;49.418;8.728;2023-08-20T14:33:07;5.60;;;5.05;;
23561;SDS011;11959;49.418;8.728;2023-08-20T14:35:32;5.45;;;4.75;;
23561;SDS011;11959;49.418;8.728;2023-08-20T14:37:58;5.50;;;4.28;;
23561;SDS011;11959;49.418;8.728;2023-08-20T14:40:24;5.97;;;4.82;;
23561;SDS011;11959;49.418;8.728;2023-08-20T14:42:50;6.47;;;4.72;;
23561;SDS011;11959;49.418;8.728;2023-08-20T14:45:16;5.63;;;4.50;;
23561;SDS011;11959;49.418;8.728;2023-08-20T14:47:41;6.60;;;5.03;;
23561;SDS011;11959;49.418;8.728;2023-08-20T14:50:09;5.43;;;4.50;;
23561;SDS011;11959;49.418;8.728;2023-08-20T14:52:34;5.78;;;4.90;;
23561;SDS011;11959;49.418;8.728;2023-08-20T14:55:00;5.30;;;4.80;;